sensor_id;sensor_type;location;lat;lon;timestamp;temperature;humidity
31783;DHT22;18351;47.560;9.708;2022-09-09T00:06:31;15.00;99.90
31783;DHT22;18351;47.560;9.708;2022-09-09T00:09:01;15.00;99.90
31783;DHT22;18351;47.560;9.708;2022-09-09T00:11:43;15.00;99.90
31783;DHT22;18351;47.560;9.708;2022-09-09T00:14:20;15.00;99.90
31783;DHT22;18351;47.560;9.708;2022-09-09T00:16:54;15.00;99.90
31783;DHT22;18351;47.560;9.708;2022-09-09T00:19:33;14.90;99.90
31783;DHT22;18351;47.560;9.708;2022-09-09T00:24:43;14.90;99.90
31783;DHT22;18351;47.560;9.708;2022-09-09T00:27:31;14.90;99.90
31783;DHT22;18351;47.560;9.708;2022-09-09T00:32:38;15.00;99.90
31783;DHT22;18351;47.560;9.708;2022-09-09T00:35:18;15.00;99.90
31783;DHT22;18351;47.560;9.708;2022-09-09T00:37:48;15.00;99.90
31783;DHT22;18351;47.560;9.708;2022-09-09T00:40:35;15.10;99.90
31783;DHT22;18351;47.560;9.708;2022-09-09T00:51:39;15.20;99.90
31783;DHT22;18351;47.560;9.708;2022-09-09T00:57:12;15.20;99.90
31783;DHT22;18351;47.560;9.708;2022-09-09T01:02:19;15.20;99.90
31783;DHT22;18351;47.560;9.708;2022-09-09T01:04:47;15.10;99.90
31783;DHT22;18351;47.560;9.708;2022-09-09T01:07:19;15.10;99.90
31783;DHT22;18351;47.560;9.708;2022-09-09T01:09:54;15.10;99.90
31783;DHT22;18351;47.560;9.708;2022-09-09T01:12:34;15.10;99.90
31783;DHT22;18351;47.560;9.708;2022-09-09T01:15:12;15.00;99.90
31783;DHT22;18351;47.560;9.708;2022-09-09T01:20:27;15.00;99.90
31783;DHT22;18351;47.560;9.708;2022-09-09T01:26:13;15.00;99.90
31783;DHT22;18351;47.560;9.708;2022-09-09T01:28:44;15.00;99.90
31783;DHT22;18351;47.560;9.708;2022-09-09T01:31:15;15.00;99.90
31783;DHT22;18351;47.560;9.708;2022-09-09T01:33:42;15.00;99.90
31783;DHT22;18351;47.560;9.708;2022-09-09T01:36:11;15.00;99.90
31783;DHT22;18351;47.560;9.708;2022-09-09T01:38:38;15.00;99.90
31783;DHT22;18351;47.560;9.708;2022-09-09T01:41:04;15.00;99.90
31783;DHT22;18351;47.560;9.708;2022-09-09T01:43:30;15.00;99.90
31783;DHT22;18351;47.560;9.708;2022-09-09T01:45:59;15.00;99.90
31783;DHT22;18351;47.560;9.708;2022-09-09T01:48:25;14.90;99.90
31783;DHT22;18351;47.560;9.708;2022-09-09T01:50:51;15.00;99.90
31783;DHT22;18351;47.560;9.708;2022-09-09T01:53:18;14.90;99.90
31783;DHT22;18351;47.560;9.708;2022-09-09T02:03:52;14.70;99.90
31783;DHT22;18351;47.560;9.708;2022-09-09T02:06:35;14.70;99.90
31783;DHT22;18351;47.560;9.708;2022-09-09T02:09:05;14.70;99.90
31783;DHT22;18351;47.560;9.708;2022-09-09T02:11:32;14.70;99.90
31783;DHT22;18351;47.560;9.708;2022-09-09T02:14:20;14.70;99.90
31783;DHT22;18351;47.560;9.708;2022-09-09T02:16:52;14.70;99.90
31783;DHT22;18351;47.560;9.708;2022-09-09T02:19:27;14.60;99.90
31783;DHT22;18351;47.560;9.708;2022-09-09T02:21:57;14.60;99.90
31783;DHT22;18351;47.560;9.708;2022-09-09T02:24:26;14.60;99.90
31783;DHT22;18351;47.560;9.708;2022-09-09T02:26:54;14.60;99.90
31783;DHT22;18351;47.560;9.708;2022-09-09T02:29:31;14.50;99.90
31783;DHT22;18351;47.560;9.708;2022-09-09T02:32:01;14.50;99.90
31783;DHT22;18351;47.560;9.708;2022-09-09T02:34:31;14.50;99.90
31783;DHT22;18351;47.560;9.708;2022-09-09T02:36:59;14.40;99.90
31783;DHT22;18351;47.560;9.708;2022-09-09T02:39:26;14.30;99.90
31783;DHT22;18351;47.560;9.708;2022-09-09T02:41:52;14.30;99.90
31783;DHT22;18351;47.560;9.708;2022-09-09T02:44:18;14.20;99.90
31783;DHT22;18351;47.560;9.708;2022-09-09T02:49:35;14.10;99.90
31783;DHT22;18351;47.560;9.708;2022-09-09T02:52:13;14.00;99.90
31783;DHT22;18351;47.560;9.708;2022-09-09T02:54:42;13.90;99.90
31783;DHT22;18351;47.560;9.708;2022-09-09T02:57:27;13.90;99.90
31783;DHT22;18351;47.560;9.708;2022-09-09T02:59:53;13.80;99.90
31783;DHT22;18351;47.560;9.708;2022-09-09T03:02:22;13.80;99.90
31783;DHT22;18351;47.560;9.708;2022-09-09T03:04:47;13.80;99.90
31783;DHT22;18351;47.560;9.708;2022-09-09T03:07:18;13.80;99.90
31783;DHT22;18351;47.560;9.708;2022-09-09T03:09:44;13.80;99.90
31783;DHT22;18351;47.560;9.708;2022-09-09T03:12:10;13.80;99.90
31783;DHT22;18351;47.560;9.708;2022-09-09T03:14:37;13.80;99.90
31783;DHT22;18351;47.560;9.708;2022-09-09T03:17:04;13.80;99.90
31783;DHT22;18351;47.560;9.708;2022-09-09T03:19:30;13.90;99.90
31783;DHT22;18351;47.560;9.708;2022-09-09T03:21:57;13.90;99.90
31783;DHT22;18351;47.560;9.708;2022-09-09T03:24:22;13.90;99.90
31783;DHT22;18351;47.560;9.708;2022-09-09T03:26:48;14.00;99.90
31783;DHT22;18351;47.560;9.708;2022-09-09T03:29:14;14.00;99.90
31783;DHT22;18351;47.560;9.708;2022-09-09T03:31:41;14.00;99.90
31783;DHT22;18351;47.560;9.708;2022-09-09T03:34:08;14.10;99.90
31783;DHT22;18351;47.560;9.708;2022-09-09T03:36:34;14.10;99.90
31783;DHT22;18351;47.560;9.708;2022-09-09T03:38:59;14.20;99.90
31783;DHT22;18351;47.560;9.708;2022-09-09T03:41:26;14.30;99.90
31783;DHT22;18351;47.560;9.708;2022-09-09T03:43:51;14.40;99.90
31783;DHT22;18351;47.560;9.708;2022-09-09T03:46:18;14.50;99.90
31783;DHT22;18351;47.560;9.708;2022-09-09T03:48:44;14.50;99.90
31783;DHT22;18351;47.560;9.708;2022-09-09T03:51:10;14.50;99.90
31783;DHT22;18351;47.560;9.708;2022-09-09T03:53:36;14.60;99.90
31783;DHT22;18351;47.560;9.708;2022-09-09T03:56:03;14.60;99.90
31783;DHT22;18351;47.560;9.708;2022-09-09T03:58:29;14.60;99.90
31783;DHT22;18351;47.560;9.708;2022-09-09T04:01:04;14.60;99.90
31783;DHT22;18351;47.560;9.708;2022-09-09T04:03:31;14.60;99.90
31783;DHT22;18351;47.560;9.708;2022-09-09T04:05:58;14.70;99.90
31783;DHT22;18351;47.560;9.708;2022-09-09T04:08:24;14.70;99.90
31783;DHT22;18351;47.560;9.708;2022-09-09T04:10:53;14.80;99.90
31783;DHT22;18351;47.560;9.708;2022-09-09T04:13:24;14.90;99.90
31783;DHT22;18351;47.560;9.708;2022-09-09T04:15:52;14.90;99.90
31783;DHT22;18351;47.560;9.708;2022-09-09T04:18:18;15.00;99.90
31783;DHT22;18351;47.560;9.708;2022-09-09T04:20:49;14.90;99.90
31783;DHT22;18351;47.560;9.708;2022-09-09T04:23:16;14.90;99.90
31783;DHT22;18351;47.560;9.708;2022-09-09T04:25:50;14.90;99.90
31783;DHT22;18351;47.560;9.708;2022-09-09T04:28:17;15.00;99.90
31783;DHT22;18351;47.560;9.708;2022-09-09T04:30:43;15.10;99.90
31783;DHT22;18351;47.560;9.708;2022-09-09T04:33:09;15.10;99.90
31783;DHT22;18351;47.560;9.708;2022-09-09T04:35:36;15.10;99.90
31783;DHT22;18351;47.560;9.708;2022-09-09T04:38:02;15.20;99.90
31783;DHT22;18351;47.560;9.708;2022-09-09T04:40:33;15.30;99.90
31783;DHT22;18351;47.560;9.708;2022-09-09T04:43:00;15.30;99.90
31783;DHT22;18351;47.560;9.708;2022-09-09T04:45:25;15.40;99.90
31783;DHT22;18351;47.560;9.708;2022-09-09T04:47:52;15.40;99.90
31783;DHT22;18351;47.560;9.708;2022-09-09T04:50:18;15.40;99.90
31783;DHT22;18351;47.560;9.708;2022-09-09T04:52:44;15.50;99.90
31783;DHT22;18351;47.560;9.708;2022-09-09T04:55:09;15.50;99.90
31783;DHT22;18351;47.560;9.708;2022-09-09T04:57:35;15.50;99.90
31783;DHT22;18351;47.560;9.708;2022-09-09T05:00:01;15.50;99.90
31783;DHT22;18351;47.560;9.708;2022-09-09T05:02:28;15.50;99.90
31783;DHT22;18351;47.560;9.708;2022-09-09T05:04:55;15.60;99.90
31783;DHT22;18351;47.560;9.708;2022-09-09T05:07:21;15.70;99.90
31783;DHT22;18351;47.560;9.708;2022-09-09T05:09:47;15.70;99.90
31783;DHT22;18351;47.560;9.708;2022-09-09T05:12:17;15.80;99.90
31783;DHT22;18351;47.560;9.708;2022-09-09T05:14:43;15.90;99.90
31783;DHT22;18351;47.560;9.708;2022-09-09T05:17:10;15.90;99.90
31783;DHT22;18351;47.560;9.708;2022-09-09T05:19:36;15.90;99.90
31783;DHT22;18351;47.560;9.708;2022-09-09T05:22:01;15.90;99.90
31783;DHT22;18351;47.560;9.708;2022-09-09T05:24:28;16.00;99.90
31783;DHT22;18351;47.560;9.708;2022-09-09T05:26:53;16.00;99.90
31783;DHT22;18351;47.560;9.708;2022-09-09T05:29:19;16.00;99.90
31783;DHT22;18351;47.560;9.708;2022-09-09T05:31:45;16.10;99.90
31783;DHT22;18351;47.560;9.708;2022-09-09T05:34:12;16.10;99.90
31783;DHT22;18351;47.560;9.708;2022-09-09T05:36:37;16.10;99.90
31783;DHT22;18351;47.560;9.708;2022-09-09T05:39:03;16.20;99.90
31783;DHT22;18351;47.560;9.708;2022-09-09T05:41:29;16.10;99.90
31783;DHT22;18351;47.560;9.708;2022-09-09T05:43:55;16.10;99.90
31783;DHT22;18351;47.560;9.708;2022-09-09T05:46:23;16.20;99.90
31783;DHT22;18351;47.560;9.708;2022-09-09T05:48:51;16.20;99.90
31783;DHT22;18351;47.560;9.708;2022-09-09T05:51:19;16.30;99.90
31783;DHT22;18351;47.560;9.708;2022-09-09T05:53:47;16.30;99.90
31783;DHT22;18351;47.560;9.708;2022-09-09T05:56:18;16.40;99.90
31783;DHT22;18351;47.560;9.708;2022-09-09T05:58:45;16.50;99.90
31783;DHT22;18351;47.560;9.708;2022-09-09T06:01:20;16.50;99.90
31783;DHT22;18351;47.560;9.708;2022-09-09T06:03:47;16.50;99.90
31783;DHT22;18351;47.560;9.708;2022-09-09T06:06:18;16.50;99.90
31783;DHT22;18351;47.560;9.708;2022-09-09T06:08:46;16.50;99.90
31783;DHT22;18351;47.560;9.708;2022-09-09T06:11:18;16.50;99.90
31783;DHT22;18351;47.560;9.708;2022-09-09T06:13:44;16.60;99.90
31783;DHT22;18351;47.560;9.708;2022-09-09T06:16:11;16.60;99.90
31783;DHT22;18351;47.560;9.708;2022-09-09T06:18:37;16.70;99.90
31783;DHT22;18351;47.560;9.708;2022-09-09T06:21:05;16.70;99.90
31783;DHT22;18351;47.560;9.708;2022-09-09T06:23:32;16.80;99.90
31783;DHT22;18351;47.560;9.708;2022-09-09T06:26:05;16.80;99.90
31783;DHT22;18351;47.560;9.708;2022-09-09T06:28:34;16.90;99.90
31783;DHT22;18351;47.560;9.708;2022-09-09T06:31:02;17.00;99.90
31783;DHT22;18351;47.560;9.708;2022-09-09T06:33:39;17.10;99.90
31783;DHT22;18351;47.560;9.708;2022-09-09T06:36:13;17.10;99.90
31783;DHT22;18351;47.560;9.708;2022-09-09T06:38:40;17.30;99.90
31783;DHT22;18351;47.560;9.708;2022-09-09T06:41:06;17.50;99.90
31783;DHT22;18351;47.560;9.708;2022-09-09T06:43:32;17.50;99.90
31783;DHT22;18351;47.560;9.708;2022-09-09T06:46:00;17.60;99.90
31783;DHT22;18351;47.560;9.708;2022-09-09T06:48:26;17.70;99.90
31783;DHT22;18351;47.560;9.708;2022-09-09T06:53:38;17.70;99.90
31783;DHT22;18351;47.560;9.708;2022-09-09T06:58:41;17.70;99.90
31783;DHT22;18351;47.560;9.708;2022-09-09T07:01:09;17.70;99.90
31783;DHT22;18351;47.560;9.708;2022-09-09T07:03:35;17.60;99.90
31783;DHT22;18351;47.560;9.708;2022-09-09T07:06:02;17.60;99.90
31783;DHT22;18351;47.560;9.708;2022-09-09T07:08:29;17.60;99.90
31783;DHT22;18351;47.560;9.708;2022-09-09T07:11:05;17.50;99.90
31783;DHT22;18351;47.560;9.708;2022-09-09T07:13:31;17.40;99.90
31783;DHT22;18351;47.560;9.708;2022-09-09T07:16:07;17.40;99.90
31783;DHT22;18351;47.560;9.708;2022-09-09T07:18:33;17.40;99.90
31783;DHT22;18351;47.560;9.708;2022-09-09T07:21:00;17.40;99.90
31783;DHT22;18351;47.560;9.708;2022-09-09T07:23:27;17.30;99.90
31783;DHT22;18351;47.560;9.708;2022-09-09T07:25:52;17.30;99.90
31783;DHT22;18351;47.560;9.708;2022-09-09T07:28:19;17.30;99.90
31783;DHT22;18351;47.560;9.708;2022-09-09T07:30:56;17.40;99.90
31783;DHT22;18351;47.560;9.708;2022-09-09T07:33:23;17.30;99.90
31783;DHT22;18351;47.560;9.708;2022-09-09T07:35:49;17.20;99.90
31783;DHT22;18351;47.560;9.708;2022-09-09T07:38:15;17.20;99.90
31783;DHT22;18351;47.560;9.708;2022-09-09T07:40:41;17.20;99.90
31783;DHT22;18351;47.560;9.708;2022-09-09T07:43:07;17.20;99.90
31783;DHT22;18351;47.560;9.708;2022-09-09T07:45:34;17.20;99.90
31783;DHT22;18351;47.560;9.708;2022-09-09T07:48:00;17.10;99.90
31783;DHT22;18351;47.560;9.708;2022-09-09T07:50:26;17.20;99.90
31783;DHT22;18351;47.560;9.708;2022-09-09T07:52:52;17.10;99.90
31783;DHT22;18351;47.560;9.708;2022-09-09T07:55:19;17.20;99.90
31783;DHT22;18351;47.560;9.708;2022-09-09T07:57:44;17.20;99.90
31783;DHT22;18351;47.560;9.708;2022-09-09T08:00:11;17.30;99.90
31783;DHT22;18351;47.560;9.708;2022-09-09T08:02:36;17.30;99.90
31783;DHT22;18351;47.560;9.708;2022-09-09T08:05:02;17.30;99.90
31783;DHT22;18351;47.560;9.708;2022-09-09T08:07:28;17.30;99.90
31783;DHT22;18351;47.560;9.708;2022-09-09T08:09:54;17.20;99.90
31783;DHT22;18351;47.560;9.708;2022-09-09T08:12:21;17.30;99.90
31783;DHT22;18351;47.560;9.708;2022-09-09T08:14:47;17.30;99.90
31783;DHT22;18351;47.560;9.708;2022-09-09T08:17:14;17.40;99.90
31783;DHT22;18351;47.560;9.708;2022-09-09T08:19:39;17.30;99.90
31783;DHT22;18351;47.560;9.708;2022-09-09T08:22:05;17.40;99.90
31783;DHT22;18351;47.560;9.708;2022-09-09T08:24:31;17.20;99.90
31783;DHT22;18351;47.560;9.708;2022-09-09T08:26:57;17.10;99.90
31783;DHT22;18351;47.560;9.708;2022-09-09T08:29:23;17.20;99.90
31783;DHT22;18351;47.560;9.708;2022-09-09T08:31:53;17.30;99.90
31783;DHT22;18351;47.560;9.708;2022-09-09T08:34:20;17.50;99.90
31783;DHT22;18351;47.560;9.708;2022-09-09T08:36:47;17.60;99.90
31783;DHT22;18351;47.560;9.708;2022-09-09T08:39:15;17.60;99.90
31783;DHT22;18351;47.560;9.708;2022-09-09T08:41:53;17.70;99.90
31783;DHT22;18351;47.560;9.708;2022-09-09T08:50:17;17.60;99.90
31783;DHT22;18351;47.560;9.708;2022-09-09T08:52:54;17.60;99.90
31783;DHT22;18351;47.560;9.708;2022-09-09T08:58:19;17.90;99.90
31783;DHT22;18351;47.560;9.708;2022-09-09T09:06:26;18.30;99.90
31783;DHT22;18351;47.560;9.708;2022-09-09T09:09:26;18.50;99.90
31783;DHT22;18351;47.560;9.708;2022-09-09T09:12:01;18.60;99.90
31783;DHT22;18351;47.560;9.708;2022-09-09T09:14:33;18.60;99.90
31783;DHT22;18351;47.560;9.708;2022-09-09T09:17:12;18.60;99.90
31783;DHT22;18351;47.560;9.708;2022-09-09T09:19:41;18.60;99.90
31783;DHT22;18351;47.560;9.708;2022-09-09T09:22:39;18.70;99.90
31783;DHT22;18351;47.560;9.708;2022-09-09T09:27:49;18.90;99.90
31783;DHT22;18351;47.560;9.708;2022-09-09T09:30:23;19.00;99.90
31783;DHT22;18351;47.560;9.708;2022-09-09T09:32:57;19.00;99.90
31783;DHT22;18351;47.560;9.708;2022-09-09T09:35:25;19.10;99.90
31783;DHT22;18351;47.560;9.708;2022-09-09T09:37:51;19.20;99.90
31783;DHT22;18351;47.560;9.708;2022-09-09T09:40:20;19.30;99.90
31783;DHT22;18351;47.560;9.708;2022-09-09T09:42:57;19.50;99.90
31783;DHT22;18351;47.560;9.708;2022-09-09T09:48:05;19.80;99.90
31783;DHT22;18351;47.560;9.708;2022-09-09T09:50:32;20.10;99.90
31783;DHT22;18351;47.560;9.708;2022-09-09T09:53:03;20.20;99.90
31783;DHT22;18351;47.560;9.708;2022-09-09T09:55:31;20.30;99.90
31783;DHT22;18351;47.560;9.708;2022-09-09T09:58:06;20.30;99.90
31783;DHT22;18351;47.560;9.708;2022-09-09T10:00:33;20.10;99.90
31783;DHT22;18351;47.560;9.708;2022-09-09T10:03:01;20.00;99.90
31783;DHT22;18351;47.560;9.708;2022-09-09T10:05:29;19.80;99.90
31783;DHT22;18351;47.560;9.708;2022-09-09T10:08:05;19.80;99.90
31783;DHT22;18351;47.560;9.708;2022-09-09T10:35:24;20.40;99.90
31783;DHT22;18351;47.560;9.708;2022-09-09T10:38:16;20.60;99.90
31783;DHT22;18351;47.560;9.708;2022-09-09T10:40:58;21.00;99.90
31783;DHT22;18351;47.560;9.708;2022-09-09T10:56:48;20.50;99.90
31783;DHT22;18351;47.560;9.708;2022-09-09T10:59:22;20.70;99.90
31783;DHT22;18351;47.560;9.708;2022-09-09T11:01:56;21.00;99.90
31783;DHT22;18351;47.560;9.708;2022-09-09T11:04:42;21.00;99.90
31783;DHT22;18351;47.560;9.708;2022-09-09T11:07:14;21.30;99.90
31783;DHT22;18351;47.560;9.708;2022-09-09T11:09:47;21.50;99.90
31783;DHT22;18351;47.560;9.708;2022-09-09T11:12:19;21.70;99.90
31783;DHT22;18351;47.560;9.708;2022-09-09T11:14:58;21.80;99.90
31783;DHT22;18351;47.560;9.708;2022-09-09T11:17:31;21.90;99.90
31783;DHT22;18351;47.560;9.708;2022-09-09T11:19:58;22.00;99.90
31783;DHT22;18351;47.560;9.708;2022-09-09T11:22:34;22.10;99.90
31783;DHT22;18351;47.560;9.708;2022-09-09T11:28:16;22.60;99.90
31783;DHT22;18351;47.560;9.708;2022-09-09T11:31:17;22.90;99.60
31783;DHT22;18351;47.560;9.708;2022-09-09T11:39:49;22.90;97.80
31783;DHT22;18351;47.560;9.708;2022-09-09T11:42:22;22.80;98.40
31783;DHT22;18351;47.560;9.708;2022-09-09T11:44:48;22.70;97.70
31783;DHT22;18351;47.560;9.708;2022-09-09T11:47:28;22.60;98.00
31783;DHT22;18351;47.560;9.708;2022-09-09T11:52:41;22.10;99.90
31783;DHT22;18351;47.560;9.708;2022-09-09T11:55:11;21.70;99.90
31783;DHT22;18351;47.560;9.708;2022-09-09T11:57:38;21.20;99.90
31783;DHT22;18351;47.560;9.708;2022-09-09T12:00:05;20.80;99.90
31783;DHT22;18351;47.560;9.708;2022-09-09T12:02:30;20.40;99.90
31783;DHT22;18351;47.560;9.708;2022-09-09T12:05:09;20.10;99.90
31783;DHT22;18351;47.560;9.708;2022-09-09T12:07:52;19.70;99.90
31783;DHT22;18351;47.560;9.708;2022-09-09T12:12:49;19.20;99.90
31783;DHT22;18351;47.560;9.708;2022-09-09T12:15:25;19.10;99.90
31783;DHT22;18351;47.560;9.708;2022-09-09T12:17:55;19.20;99.90
31783;DHT22;18351;47.560;9.708;2022-09-09T12:20:22;19.30;99.90
31783;DHT22;18351;47.560;9.708;2022-09-09T12:22:54;19.50;99.90
31783;DHT22;18351;47.560;9.708;2022-09-09T12:28:22;19.30;99.90
31783;DHT22;18351;47.560;9.708;2022-09-09T12:31:01;19.00;99.90
31783;DHT22;18351;47.560;9.708;2022-09-09T12:33:37;19.10;99.90
31783;DHT22;18351;47.560;9.708;2022-09-09T12:36:05;19.30;99.90
31783;DHT22;18351;47.560;9.708;2022-09-09T12:38:37;19.40;99.90
31783;DHT22;18351;47.560;9.708;2022-09-09T12:41:04;19.50;99.90
31783;DHT22;18351;47.560;9.708;2022-09-09T12:43:30;19.70;99.90
31783;DHT22;18351;47.560;9.708;2022-09-09T12:45:59;19.70;99.90
31783;DHT22;18351;47.560;9.708;2022-09-09T12:48:37;19.70;99.90
31783;DHT22;18351;47.560;9.708;2022-09-09T12:51:07;19.80;99.90
31783;DHT22;18351;47.560;9.708;2022-09-09T12:53:40;20.10;99.90
31783;DHT22;18351;47.560;9.708;2022-09-09T12:56:08;20.40;99.90
31783;DHT22;18351;47.560;9.708;2022-09-09T12:58:37;20.60;99.90
31783;DHT22;18351;47.560;9.708;2022-09-09T13:01:04;20.70;99.90
31783;DHT22;18351;47.560;9.708;2022-09-09T13:03:32;20.70;99.90
31783;DHT22;18351;47.560;9.708;2022-09-09T13:06:11;20.70;99.90
31783;DHT22;18351;47.560;9.708;2022-09-09T13:08:37;21.10;99.90
31783;DHT22;18351;47.560;9.708;2022-09-09T13:11:08;21.40;99.90
31783;DHT22;18351;47.560;9.708;2022-09-09T13:13:38;21.70;99.90
31783;DHT22;18351;47.560;9.708;2022-09-09T13:16:06;21.90;99.90
31783;DHT22;18351;47.560;9.708;2022-09-09T13:18:35;22.30;99.90
31783;DHT22;18351;47.560;9.708;2022-09-09T13:21:02;22.30;99.90
31783;DHT22;18351;47.560;9.708;2022-09-09T13:23:33;22.40;99.90
31783;DHT22;18351;47.560;9.708;2022-09-09T13:26:22;22.40;99.90
31783;DHT22;18351;47.560;9.708;2022-09-09T13:28:48;22.40;99.90
31783;DHT22;18351;47.560;9.708;2022-09-09T13:31:22;22.40;99.90
31783;DHT22;18351;47.560;9.708;2022-09-09T13:33:48;22.40;99.90
31783;DHT22;18351;47.560;9.708;2022-09-09T13:36:14;22.40;99.90
31783;DHT22;18351;47.560;9.708;2022-09-09T13:41:19;22.30;99.90
31783;DHT22;18351;47.560;9.708;2022-09-09T13:43:47;22.30;99.90
31783;DHT22;18351;47.560;9.708;2022-09-09T13:46:35;22.40;99.90
31783;DHT22;18351;47.560;9.708;2022-09-09T13:52:14;22.30;99.90
31783;DHT22;18351;47.560;9.708;2022-09-09T13:54:41;22.40;99.90
31783;DHT22;18351;47.560;9.708;2022-09-09T13:57:23;22.40;99.90
31783;DHT22;18351;47.560;9.708;2022-09-09T13:59:51;22.50;99.90
31783;DHT22;18351;47.560;9.708;2022-09-09T14:02:17;22.50;99.90
31783;DHT22;18351;47.560;9.708;2022-09-09T14:04:44;22.50;99.90
31783;DHT22;18351;47.560;9.708;2022-09-09T14:07:14;22.50;99.90
31783;DHT22;18351;47.560;9.708;2022-09-09T14:09:41;22.60;99.90
31783;DHT22;18351;47.560;9.708;2022-09-09T14:12:13;22.60;99.90
31783;DHT22;18351;47.560;9.708;2022-09-09T14:14:40;22.40;99.90
31783;DHT22;18351;47.560;9.708;2022-09-09T14:17:07;22.40;99.90
31783;DHT22;18351;47.560;9.708;2022-09-09T14:19:33;22.50;99.90
31783;DHT22;18351;47.560;9.708;2022-09-09T14:21:59;22.50;99.70
31783;DHT22;18351;47.560;9.708;2022-09-09T14:24:24;22.50;99.70
31783;DHT22;18351;47.560;9.708;2022-09-09T14:26:50;22.30;99.90
31783;DHT22;18351;47.560;9.708;2022-09-09T14:29:16;22.20;98.50
31783;DHT22;18351;47.560;9.708;2022-09-09T14:31:41;22.30;99.90
31783;DHT22;18351;47.560;9.708;2022-09-09T14:34:07;22.30;98.50
31783;DHT22;18351;47.560;9.708;2022-09-09T14:36:33;22.40;99.10
31783;DHT22;18351;47.560;9.708;2022-09-09T14:38:58;22.40;98.70
31783;DHT22;18351;47.560;9.708;2022-09-09T14:41:24;22.40;98.90
31783;DHT22;18351;47.560;9.708;2022-09-09T14:43:51;22.40;98.30
31783;DHT22;18351;47.560;9.708;2022-09-09T14:46:18;22.40;97.40
31783;DHT22;18351;47.560;9.708;2022-09-09T14:48:44;22.40;98.40
31783;DHT22;18351;47.560;9.708;2022-09-09T14:51:18;22.40;98.70
31783;DHT22;18351;47.560;9.708;2022-09-09T14:53:45;22.40;98.70
31783;DHT22;18351;47.560;9.708;2022-09-09T14:56:14;22.30;95.60
31783;DHT22;18351;47.560;9.708;2022-09-09T14:58:40;22.10;97.20
31783;DHT22;18351;47.560;9.708;2022-09-09T15:01:11;22.20;96.80
31783;DHT22;18351;47.560;9.708;2022-09-09T15:03:38;22.30;95.40
31783;DHT22;18351;47.560;9.708;2022-09-09T15:06:08;22.40;96.40
31783;DHT22;18351;47.560;9.708;2022-09-09T15:08:40;22.40;96.30
31783;DHT22;18351;47.560;9.708;2022-09-09T15:11:06;22.40;96.60
31783;DHT22;18351;47.560;9.708;2022-09-09T15:13:33;22.40;93.80
31783;DHT22;18351;47.560;9.708;2022-09-09T15:16:14;22.20;93.90
31783;DHT22;18351;47.560;9.708;2022-09-09T15:18:41;22.00;94.40
31783;DHT22;18351;47.560;9.708;2022-09-09T15:21:15;22.10;96.30
31783;DHT22;18351;47.560;9.708;2022-09-09T15:23:41;22.30;94.50
31783;DHT22;18351;47.560;9.708;2022-09-09T15:26:07;22.20;91.90
31783;DHT22;18351;47.560;9.708;2022-09-09T15:28:34;21.80;91.90
31783;DHT22;18351;47.560;9.708;2022-09-09T15:31:12;21.90;93.90
31783;DHT22;18351;47.560;9.708;2022-09-09T15:33:47;21.90;94.70
31783;DHT22;18351;47.560;9.708;2022-09-09T15:36:24;21.80;94.60
31783;DHT22;18351;47.560;9.708;2022-09-09T15:38:51;21.80;95.10
31783;DHT22;18351;47.560;9.708;2022-09-09T15:41:18;21.70;95.90
31783;DHT22;18351;47.560;9.708;2022-09-09T15:43:48;21.70;94.00
31783;DHT22;18351;47.560;9.708;2022-09-09T15:46:22;21.60;94.30
31783;DHT22;18351;47.560;9.708;2022-09-09T15:48:53;21.50;95.70
31783;DHT22;18351;47.560;9.708;2022-09-09T15:51:19;21.50;94.80
31783;DHT22;18351;47.560;9.708;2022-09-09T15:53:45;21.40;96.80
31783;DHT22;18351;47.560;9.708;2022-09-09T15:56:11;21.60;95.30
31783;DHT22;18351;47.560;9.708;2022-09-09T15:58:37;21.60;94.70
31783;DHT22;18351;47.560;9.708;2022-09-09T16:01:06;21.70;96.80
31783;DHT22;18351;47.560;9.708;2022-09-09T16:03:36;21.80;94.90
31783;DHT22;18351;47.560;9.708;2022-09-09T16:06:02;21.90;95.80
31783;DHT22;18351;47.560;9.708;2022-09-09T16:08:36;21.90;95.00
31783;DHT22;18351;47.560;9.708;2022-09-09T16:11:13;22.00;97.10
31783;DHT22;18351;47.560;9.708;2022-09-09T16:13:41;21.90;97.20
31783;DHT22;18351;47.560;9.708;2022-09-09T16:16:10;21.90;97.20
31783;DHT22;18351;47.560;9.708;2022-09-09T16:18:45;21.80;96.70
31783;DHT22;18351;47.560;9.708;2022-09-09T16:21:17;21.70;97.40
31783;DHT22;18351;47.560;9.708;2022-09-09T16:23:43;21.60;98.00
31783;DHT22;18351;47.560;9.708;2022-09-09T16:26:14;21.60;97.60
31783;DHT22;18351;47.560;9.708;2022-09-09T16:28:40;21.50;97.60
31783;DHT22;18351;47.560;9.708;2022-09-09T16:31:07;21.40;96.70
31783;DHT22;18351;47.560;9.708;2022-09-09T16:33:33;21.30;96.20
31783;DHT22;18351;47.560;9.708;2022-09-09T16:36:05;21.20;96.90
31783;DHT22;18351;47.560;9.708;2022-09-09T16:38:31;21.10;97.50
31783;DHT22;18351;47.560;9.708;2022-09-09T16:41:02;20.90;98.50
31783;DHT22;18351;47.560;9.708;2022-09-09T16:43:28;20.70;98.90
31783;DHT22;18351;47.560;9.708;2022-09-09T16:45:53;20.50;99.50
31783;DHT22;18351;47.560;9.708;2022-09-09T16:48:19;20.40;99.00
31783;DHT22;18351;47.560;9.708;2022-09-09T16:50:45;20.40;99.00
31783;DHT22;18351;47.560;9.708;2022-09-09T16:53:11;20.30;98.90
31783;DHT22;18351;47.560;9.708;2022-09-09T16:55:39;20.30;99.30
31783;DHT22;18351;47.560;9.708;2022-09-09T16:58:05;20.20;99.40
31783;DHT22;18351;47.560;9.708;2022-09-09T17:00:30;20.20;99.10
31783;DHT22;18351;47.560;9.708;2022-09-09T17:02:56;20.20;99.40
31783;DHT22;18351;47.560;9.708;2022-09-09T17:05:21;20.30;99.90
31783;DHT22;18351;47.560;9.708;2022-09-09T17:07:48;20.40;99.90
31783;DHT22;18351;47.560;9.708;2022-09-09T17:10:14;20.40;99.90
31783;DHT22;18351;47.560;9.708;2022-09-09T17:12:39;20.30;99.90
31783;DHT22;18351;47.560;9.708;2022-09-09T17:15:07;20.20;99.70
31783;DHT22;18351;47.560;9.708;2022-09-09T17:17:32;20.00;99.90
31783;DHT22;18351;47.560;9.708;2022-09-09T17:19:58;19.80;99.90
31783;DHT22;18351;47.560;9.708;2022-09-09T17:22:24;19.70;99.90
31783;DHT22;18351;47.560;9.708;2022-09-09T17:24:51;19.60;99.90
31783;DHT22;18351;47.560;9.708;2022-09-09T17:27:17;19.50;99.90
31783;DHT22;18351;47.560;9.708;2022-09-09T17:29:42;19.30;99.90
31783;DHT22;18351;47.560;9.708;2022-09-09T17:32:08;19.20;99.90
31783;DHT22;18351;47.560;9.708;2022-09-09T17:34:35;19.00;99.90
31783;DHT22;18351;47.560;9.708;2022-09-09T17:37:01;18.80;99.90
31783;DHT22;18351;47.560;9.708;2022-09-09T17:39:27;18.60;99.90
31783;DHT22;18351;47.560;9.708;2022-09-09T17:41:53;18.50;99.90
31783;DHT22;18351;47.560;9.708;2022-09-09T17:44:19;18.30;99.90
31783;DHT22;18351;47.560;9.708;2022-09-09T17:46:45;18.20;99.90
31783;DHT22;18351;47.560;9.708;2022-09-09T17:49:13;18.10;99.90
31783;DHT22;18351;47.560;9.708;2022-09-09T17:51:39;18.10;99.90